Airfield :
LOGIN :

Register | Disclaimer

   EN    FR    IT 

 










Legend :    VFR   Marginal VFR   IFR   Intensive IFR   Very Intensive IFR
Visi :
Ceiling :
>= 8 km
>= 3000ft
5 to 8 km
1000 to 3000 ft
1500m to 5 km
500 to 1000 ft
800 to 1500m
200 to 500 ft
< 800m
< 200 ft
Symbols :   Thunderstorms  Fog  Heavy snow  Heavy precipitations  Wind > 20 kt
SIGMETs :     Misc.  Thunderstorms  Icing  Turbulence  Mountain Waves  Volcanic Ashes






- Airport Elevation : 26 ft
- IATA code : SYY


EGPO - Stornoway

CURRENT METAR :
  • 171850Z 27023G34KT 9999 -SHRA SCT018CB SCT023 BKN036 05/02 Q1005

EXPIRED METARs :
  • 171820Z 26023G33KT 9999 -SHRA SCT018CB SCT024 BKN040 05/02 Q1004
  • 171750Z 26020KT 9999 VCSH FEW018CB FEW040 05/02 Q1003
  • 171720Z 27018G28KT 9999 VCSH FEW018CB SCT043 06/02 Q1003
  • 171650Z 26017KT 9999 VCSH FEW013 FEW018CB SCT031 06/02 Q1002
  • 171620Z 27018KT 9999 VCSH FEW013 SCT018CB SCT032 06/03 Q1001

TAF TAF EGPO
Valid from the 17 at 18:00 until the 18 at 03:00 UTC


171656Z 1718/1803 27019KT 9999 SCT018
TEMPO 1718/1803 28022G32KT
PROB40
TEMPO 1718/1803 6000 SHRA BKN014CB
PROB30
TEMPO 1718/1723 28025G42KT
ATIS : +44 1851 707 444



MET'MAP, your aeronautical weather chart ! - Copyright ORBIFLY December 2007 - Disclaimer

ORBIFLY MET'MAP TEAM :

Programming & Development : Alexandra Zaïnal
Concept & original design : Baudouin d'Aumeries
Assistance for programming : Marc-Olivier Méhu
Technical & hardware support : Manuel Goepfert

Contact : metmap@orbifly.com




SOURCES & CREDITS :

   NOAA